createdAt,value
2019-02-14T00:00:13.270Z,-3.8
2019-02-14T00:01:03.104Z,-3.9
2019-02-14T00:01:53.362Z,-3.8
2019-02-14T00:03:33.209Z,-3.7
2019-02-14T00:04:23.551Z,-3.7
2019-02-14T00:05:34.185Z,-3.7
2019-02-14T00:06:03.660Z,-3.7
2019-02-14T00:06:53.439Z,-3.7
2019-02-14T00:07:43.786Z,-3.7
2019-02-14T00:08:33.826Z,-3.7
2019-02-14T00:15:13.746Z,-3.8
2019-02-14T00:16:04.354Z,-3.8
2019-02-14T00:16:53.843Z,-3.8
2019-02-14T00:17:43.874Z,-3.8
2019-02-14T00:18:33.971Z,-3.8
2019-02-14T00:19:24.585Z,-3.8
2019-02-14T00:23:34.042Z,-3.7
2019-02-14T00:27:44.857Z,-3.7
2019-02-14T00:33:35.260Z,-3.8
2019-02-14T00:34:26.587Z,-3.8
2019-02-14T00:35:15.692Z,-3.8
2019-02-14T00:38:35.605Z,-3.8
2019-02-14T00:39:25.399Z,-3.8
2019-02-14T00:40:16.229Z,-3.8
2019-02-14T00:41:05.784Z,-3.8
2019-02-14T00:41:56.287Z,-3.9
2019-02-14T00:42:45.889Z,-3.8
2019-02-14T00:43:35.669Z,-3.8
2019-02-14T00:44:26.006Z,-3.8
2019-02-14T00:45:16.292Z,-3.8
2019-02-14T00:46:05.894Z,-3.9
2019-02-14T00:46:55.919Z,-3.9
2019-02-14T00:47:46.239Z,-3.9
2019-02-14T00:48:36.289Z,-3.9
2019-02-14T00:49:25.862Z,-3.9
2019-02-14T00:50:16.401Z,-3.9
2019-02-14T00:51:05.351Z,-3.9
2019-02-14T00:51:56.574Z,-3.8
2019-02-14T00:52:46.576Z,-3.8
2019-02-14T00:53:36.638Z,-3.8
2019-02-14T00:54:26.976Z,-3.8
2019-02-14T00:55:16.748Z,-3.8
2019-02-14T00:56:07.142Z,-3.8
2019-02-14T00:56:56.583Z,-3.9
2019-02-14T00:57:46.873Z,-3.8
2019-02-14T00:58:36.696Z,-3.9
2019-02-14T00:59:27.048Z,-3.9
2019-02-14T01:00:17.091Z,-3.9
2019-02-14T01:01:07.415Z,-3.9
2019-02-14T01:01:57.210Z,-3.9
2019-02-14T01:02:47.308Z,-3.9
2019-02-14T01:03:37.365Z,-3.9
2019-02-14T01:04:27.135Z,-3.9
2019-02-14T01:05:19.393Z,-3.9
2019-02-14T01:06:07.498Z,-3.9
2019-02-14T01:06:57.588Z,-4
2019-02-14T01:07:47.892Z,-4
2019-02-14T01:08:37.394Z,-3.9
2019-02-14T01:09:28.012Z,-3.9
2019-02-14T01:10:17.840Z,-3.9
2019-02-14T01:11:07.829Z,-3.9
2019-02-14T01:11:58.183Z,-3.9
2019-02-14T01:12:48.102Z,-3.9
2019-02-14T01:13:37.993Z,-3.8
2019-02-14T01:14:27.827Z,-3.9
2019-02-14T01:15:18.115Z,-3.8
2019-02-14T01:16:08.177Z,-3.9
2019-02-14T01:16:58.557Z,-3.9
2019-02-14T01:17:48.563Z,-3.9
2019-02-14T01:18:38.252Z,-4
2019-02-14T01:19:28.665Z,-4
2019-02-14T01:20:18.179Z,-4
2019-02-14T01:21:07.972Z,-4
2019-02-14T01:21:58.557Z,-3.9
2019-02-14T01:22:48.890Z,-3.9
2019-02-14T01:23:38.689Z,-4
2019-02-14T01:24:28.464Z,-4.1
2019-02-14T01:25:19.092Z,-4.1
2019-02-14T01:26:09.082Z,-4.1
2019-02-14T01:26:59.184Z,-3.9
2019-02-14T01:27:48.706Z,-3.9
2019-02-14T01:28:39.312Z,-3.9
2019-02-14T01:29:29.361Z,-3.9
2019-02-14T01:30:18.891Z,-3.9
2019-02-14T01:31:09.198Z,-3.9
2019-02-14T01:31:59.284Z,-4
2019-02-14T01:32:49.306Z,-4
2019-02-14T01:33:39.371Z,-4.1
2019-02-14T01:34:29.149Z,-4.1
2019-02-14T01:35:18.656Z,-4.1
2019-02-14T01:36:09.538Z,-4.1
2019-02-14T01:36:59.878Z,-4.1
2019-02-14T01:37:50.919Z,-4.1
2019-02-14T01:38:39.174Z,-4.1
2019-02-14T01:39:29.768Z,-4.1
2019-02-14T01:40:20.113Z,-4.1
2019-02-14T01:41:10.156Z,-4.1
2019-02-14T01:42:00.223Z,-4
2019-02-14T01:42:50.303Z,-4
2019-02-14T01:43:40.373Z,-3.9
2019-02-14T01:44:29.836Z,-3.9
2019-02-14T01:45:20.850Z,-3.9
2019-02-14T01:46:10.224Z,-4
2019-02-14T01:47:00.282Z,-4
2019-02-14T01:47:50.673Z,-4
2019-02-14T01:48:40.400Z,-4
2019-02-14T01:49:30.393Z,-3.9
2019-02-14T01:50:20.793Z,-3.9
2019-02-14T01:51:10.290Z,-4.1
2019-02-14T01:52:00.353Z,-4
2019-02-14T01:52:50.675Z,-4
2019-02-14T01:53:41.015Z,-4
2019-02-14T01:54:30.519Z,-3.9
2019-02-14T01:55:20.604Z,-3.9
2019-02-14T01:56:10.940Z,-3.9
2019-02-14T01:57:00.974Z,-4
2019-02-14T01:57:51.017Z,-4
2019-02-14T01:58:41.987Z,-4.1
2019-02-14T01:59:31.129Z,-4.1
2019-02-14T02:00:21.197Z,-4.1
2019-02-14T02:01:10.967Z,-4.1
2019-02-14T02:02:01.633Z,-4.1
2019-02-14T02:02:51.378Z,-4.1
2019-02-14T02:03:41.192Z,-4.1
2019-02-14T02:04:31.190Z,-4.1
2019-02-14T02:05:21.987Z,-3.9
2019-02-14T02:06:11.862Z,-3.9
2019-02-14T02:07:01.602Z,-3.9
2019-02-14T02:07:51.727Z,-3.9
2019-02-14T02:08:42.041Z,-4
2019-02-14T02:09:31.269Z,-4
2019-02-14T02:10:21.097Z,-4
2019-02-14T02:11:11.948Z,-4.1
2019-02-14T02:12:02.196Z,-4.1
2019-02-14T02:12:52.326Z,-4.1
2019-02-14T02:13:42.112Z,-4
2019-02-14T02:14:32.434Z,-4
2019-02-14T02:15:36.867Z,-3.9
2019-02-14T02:16:12.598Z,-3.9
2019-02-14T02:17:02.374Z,-3.9
2019-02-14T02:17:52.400Z,-3.9
2019-02-14T02:18:42.451Z,-3.9
2019-02-14T02:19:32.486Z,-3.9
2019-02-14T02:20:22.875Z,-3.9
2019-02-14T02:21:12.618Z,-3.9
2019-02-14T02:22:02.906Z,-3.9
2019-02-14T02:22:52.446Z,-3.9
2019-02-14T02:23:42.783Z,-3.9
2019-02-14T02:24:32.851Z,-3.9
2019-02-14T02:25:22.909Z,-3.9
2019-02-14T02:26:13.878Z,-3.9
2019-02-14T02:27:03.025Z,-3.9
2019-02-14T02:27:52.238Z,-3.9
2019-02-14T02:28:43.130Z,-3.9
2019-02-14T02:29:33.457Z,-4
2019-02-14T02:30:23.286Z,-4
2019-02-14T02:31:12.813Z,-3.9
2019-02-14T02:32:03.126Z,-3.9
2019-02-14T02:32:53.763Z,-3.9
2019-02-14T02:33:43.423Z,-3.9
2019-02-14T02:34:33.255Z,-3.9
2019-02-14T02:35:23.883Z,-3.9
2019-02-14T02:36:13.659Z,-3.8
2019-02-14T02:37:03.487Z,-3.8
2019-02-14T02:39:33.613Z,-3.7
2019-02-14T02:40:24.223Z,-3.7
2019-02-14T02:42:54.376Z,-3.8
2019-02-14T02:43:44.210Z,-3.8
2019-02-14T02:46:14.634Z,-3.8
2019-02-14T02:47:04.394Z,-3.8
2019-02-14T02:47:54.437Z,-3.8
2019-02-14T02:49:34.556Z,-3.8
2019-02-14T02:50:24.912Z,-3.8
2019-02-14T02:51:14.676Z,-3.8
2019-02-14T02:52:05.255Z,-3.8
2019-02-14T02:52:54.781Z,-3.8
2019-02-14T02:53:45.116Z,-3.8
2019-02-14T02:54:34.944Z,-3.8
2019-02-14T02:55:24.684Z,-3.7
2019-02-14T02:56:15.289Z,-3.6
2019-02-14T02:57:05.092Z,-3.5
2019-02-14T02:57:55.509Z,-3.4
2019-02-14T02:58:45.383Z,-3.4
2019-02-14T02:59:35.514Z,-3.3
2019-02-14T03:00:25.614Z,-3.3
2019-02-14T03:01:15.656Z,-3.3
2019-02-14T03:02:05.694Z,-3.3
2019-02-14T03:02:55.768Z,-3.3
2019-02-14T03:03:45.548Z,-3.3
2019-02-14T03:04:34.739Z,-3.3
2019-02-14T03:08:08.801Z,-3.3
2019-02-14T03:08:58.624Z,-3.4
2019-02-14T03:09:49.003Z,-3.4
2019-02-14T03:10:38.963Z,-3.4
2019-02-14T03:11:29.014Z,-3.5
2019-02-14T03:12:18.285Z,-3.5
2019-02-14T03:13:08.581Z,-3.5
2019-02-14T03:13:59.248Z,-3.5
2019-02-14T03:14:48.966Z,-3.5
2019-02-14T03:15:38.730Z,-3.6
2019-02-14T03:16:29.434Z,-3.7
2019-02-14T03:19:49.287Z,-3.7
2019-02-14T03:23:09.240Z,-3.8
2019-02-14T03:23:59.566Z,-3.8
2019-02-14T03:24:49.897Z,-3.8
2019-02-14T03:25:39.949Z,-3.9
2019-02-14T03:26:29.746Z,-3.9
2019-02-14T03:27:19.797Z,-3.9
2019-02-14T03:28:09.858Z,-3.9
2019-02-14T03:28:59.907Z,-3.8
2019-02-14T03:29:49.960Z,-3.8
2019-02-14T03:30:39.520Z,-3.8
2019-02-14T03:31:30.387Z,-3.8
2019-02-14T03:32:20.502Z,-3.9
2019-02-14T03:34:00.529Z,-3.7
2019-02-14T03:34:49.744Z,-3.7
2019-02-14T03:35:40.358Z,-3.7
2019-02-14T03:36:30.139Z,-3.7
2019-02-14T03:37:20.201Z,-3.7
2019-02-14T03:38:10.536Z,-3.7
2019-02-14T03:39:00.869Z,-3.6
2019-02-14T03:39:50.737Z,-3.6
2019-02-14T03:40:40.703Z,-3.6
2019-02-14T03:41:31.031Z,-3.7
2019-02-14T03:42:20.821Z,-3.7
2019-02-14T03:45:40.761Z,-3.8
2019-02-14T03:49:51.608Z,-3.8
2019-02-14T03:50:41.105Z,-3.8
2019-02-14T03:51:31.723Z,-3.8
2019-02-14T03:53:11.814Z,-3.8
2019-02-14T03:54:51.940Z,-3.7
2019-02-14T03:55:41.715Z,-3.7
2019-02-14T03:59:02.238Z,-3.7
2019-02-14T03:59:52.018Z,-3.6
2019-02-14T04:00:41.777Z,-3.5
2019-02-14T04:01:32.314Z,-3.5
2019-02-14T04:02:22.175Z,-3.4
2019-02-14T04:03:11.958Z,-3.4
2019-02-14T04:04:02.054Z,-3.4
2019-02-14T04:04:52.612Z,-3.4
2019-02-14T04:05:42.399Z,-3.4
2019-02-14T04:06:32.745Z,-3.4
2019-02-14T04:07:22.791Z,-3.5
2019-02-14T04:08:12.834Z,-3.4
2019-02-14T04:09:02.894Z,-3.4
2019-02-14T04:09:52.677Z,-3.5
2019-02-14T04:10:42.466Z,-3.6
2019-02-14T04:11:32.266Z,-3.6
2019-02-14T04:12:22.861Z,-3.6
2019-02-14T04:13:13.183Z,-3.6
2019-02-14T04:14:02.962Z,-3.6
2019-02-14T04:14:53.304Z,-3.6
2019-02-14T04:15:42.862Z,-3.6
2019-02-14T04:16:33.406Z,-3.6
2019-02-14T04:17:23.451Z,-3.7
2019-02-14T04:21:33.469Z,-3.8
2019-02-14T04:22:23.798Z,-3.8
2019-02-14T04:23:13.856Z,-3.9
2019-02-14T04:24:03.386Z,-3.8
2019-02-14T04:24:53.699Z,-3.8
2019-02-14T04:25:43.803Z,-3.8
2019-02-14T04:27:23.876Z,-3.7
2019-02-14T04:28:13.901Z,-3.6
2019-02-14T04:29:04.013Z,-3.6
2019-02-14T04:29:54.041Z,-3.6
2019-02-14T04:30:44.395Z,-3.5
2019-02-14T04:31:34.421Z,-3.5
2019-02-14T04:32:24.478Z,-3.5
2019-02-14T04:33:13.984Z,-3.5
2019-02-14T04:34:04.605Z,-3.6
2019-02-14T04:34:54.668Z,-3.6
2019-02-14T04:35:44.760Z,-3.5
2019-02-14T04:36:39.158Z,-3.5
2019-02-14T04:37:24.559Z,-3.5
2019-02-14T04:38:14.388Z,-3.6
2019-02-14T04:39:04.670Z,-3.5
2019-02-14T04:39:55.035Z,-3.6
2019-02-14T04:40:45.048Z,-3.6
2019-02-14T04:41:34.828Z,-3.5
2019-02-14T04:42:25.167Z,-3.4
2019-02-14T04:43:14.942Z,-3.4
2019-02-14T04:44:04.989Z,-3.4
2019-02-14T04:44:54.777Z,-3.4
2019-02-14T04:45:45.397Z,-3.3
2019-02-14T04:46:35.174Z,-3.4
2019-02-14T04:47:25.497Z,-3.5
2019-02-14T04:48:15.555Z,-3.5
2019-02-14T04:49:05.607Z,-3.5
2019-02-14T04:49:55.660Z,-3.4
2019-02-14T04:50:45.721Z,-3.4
2019-02-14T04:51:35.522Z,-3.4
2019-02-14T04:52:25.834Z,-3.4
2019-02-14T04:53:15.612Z,-3.4
2019-02-14T04:54:05.957Z,-3.3
2019-02-14T04:54:56.019Z,-3.3
2019-02-14T04:55:45.502Z,-3.3
2019-02-14T04:56:35.843Z,-3.4
2019-02-14T04:57:25.893Z,-3.4
2019-02-14T04:58:15.409Z,-3.3
2019-02-14T04:59:06.289Z,-3.4
2019-02-14T04:59:56.064Z,-3.3
2019-02-14T05:00:46.149Z,-3.3
2019-02-14T05:01:36.221Z,-3.2
2019-02-14T05:02:26.247Z,-3.3
2019-02-14T05:03:16.297Z,-3.3
2019-02-14T05:04:06.633Z,-3.3
2019-02-14T05:04:56.416Z,-3.2
2019-02-14T05:05:46.482Z,-3.3
2019-02-14T05:06:44.663Z,-3.2
2019-02-14T05:07:26.854Z,-3
2019-02-14T05:08:16.643Z,-3.1
2019-02-14T05:09:06.970Z,-3.1
2019-02-14T05:09:56.748Z,-3.2
2019-02-14T05:10:47.083Z,-3.1
2019-02-14T05:11:37.139Z,-3.1
2019-02-14T05:12:28.857Z,-3.1
2019-02-14T05:13:16.974Z,-3.1
2019-02-14T05:14:06.761Z,-3
2019-02-14T05:14:56.815Z,-2.9
2019-02-14T05:15:47.418Z,-2.9
2019-02-14T05:16:37.478Z,-2.9
2019-02-14T05:17:27.525Z,-2.9
2019-02-14T05:18:17.646Z,-2.9
2019-02-14T05:19:07.701Z,-2.9
2019-02-14T05:19:57.466Z,-2.9
2019-02-14T05:20:47.760Z,-3
2019-02-14T05:21:37.265Z,-3.1
2019-02-14T05:22:27.589Z,-3.1
2019-02-14T05:23:17.928Z,-3.1
2019-02-14T05:24:07.703Z,-3.1
2019-02-14T05:24:57.828Z,-3.1
2019-02-14T05:25:48.095Z,-3.1
2019-02-14T05:26:37.875Z,-3.2
2019-02-14T05:27:27.985Z,-3.2
2019-02-14T05:28:18.003Z,-3.2
2019-02-14T05:29:08.332Z,-3.2
2019-02-14T05:29:57.272Z,-3.2
2019-02-14T05:30:48.170Z,-3.1
2019-02-14T05:31:39.770Z,-3.1
2019-02-14T05:32:28.278Z,-3.1
2019-02-14T05:33:18.662Z,-3.1
2019-02-14T05:34:08.656Z,-3.1
2019-02-14T05:34:58.183Z,-3.1
2019-02-14T05:35:48.772Z,-3
2019-02-14T05:36:38.287Z,-3
2019-02-14T05:37:28.632Z,-3.1
2019-02-14T05:38:18.946Z,-3.1
2019-02-14T05:39:09.006Z,-3.2
2019-02-14T05:39:59.059Z,-3.3
2019-02-14T05:40:48.844Z,-3.2
2019-02-14T05:41:38.624Z,-3.2
2019-02-14T05:42:28.944Z,-3.3
2019-02-14T05:43:18.794Z,-3.3
2019-02-14T05:44:09.064Z,-3.3
2019-02-14T05:44:59.399Z,-3.2
2019-02-14T05:45:49.184Z,-3.1
2019-02-14T05:46:39.497Z,-3.1
2019-02-14T05:47:29.569Z,-3.1
2019-02-14T05:48:19.664Z,-3.3
2019-02-14T05:49:09.682Z,-3.3
2019-02-14T05:49:59.182Z,-3.3
2019-02-14T05:50:49.516Z,-3.3
2019-02-14T05:51:39.847Z,-3.3
2019-02-14T05:52:29.898Z,-3.3
2019-02-14T05:53:19.689Z,-3.3
2019-02-14T05:54:09.732Z,-3.3
2019-02-14T05:54:59.805Z,-3.3
2019-02-14T05:55:49.862Z,-3.3
2019-02-14T05:56:40.184Z,-3.2
2019-02-14T05:57:30.407Z,-3.2
2019-02-14T05:58:20.309Z,-3.2
2019-02-14T05:59:09.788Z,-3.1
2019-02-14T05:59:59.872Z,-3.1
2019-02-14T06:00:50.462Z,-3.1
2019-02-14T06:01:40.524Z,-3.1
2019-02-14T06:02:32.182Z,-3.1
2019-02-14T06:03:20.362Z,-3.1
2019-02-14T06:04:10.418Z,-2.9
2019-02-14T06:06:08.608Z,-2.8
2019-02-14T06:07:04.089Z,-2.8
2019-02-14T06:07:48.201Z,-2.6
2019-02-14T06:08:38.763Z,-2.6
2019-02-14T06:09:28.878Z,-2.6
2019-02-14T06:10:18.344Z,-2.6
2019-02-14T06:11:08.661Z,-2.6
2019-02-14T06:11:58.719Z,-2.5
2019-02-14T06:12:49.054Z,-2.5
2019-02-14T06:13:39.116Z,-2.4
2019-02-14T06:14:29.164Z,-2.4
2019-02-14T06:15:18.668Z,-2.4
2019-02-14T06:16:09.278Z,-2.4
2019-02-14T06:16:59.296Z,-2.4
2019-02-14T06:17:49.131Z,-2.4
2019-02-14T06:18:38.895Z,-2.4
2019-02-14T06:19:29.503Z,-2.3
2019-02-14T06:20:19.130Z,-2.3
2019-02-14T06:21:09.553Z,-2.3
2019-02-14T06:21:59.661Z,-2.3
2019-02-14T06:22:49.727Z,-2.2
2019-02-14T06:23:39.053Z,-2.2
2019-02-14T06:24:29.547Z,-2.1
2019-02-14T06:25:19.451Z,-2.1
2019-02-14T06:26:09.184Z,-2.1
2019-02-14T06:27:00.000Z,-2.1
2019-02-14T06:27:49.787Z,-2
2019-02-14T06:28:39.756Z,-2
2019-02-14T06:29:44.549Z,-2
2019-02-14T06:30:20.237Z,-1.9
2019-02-14T06:31:10.289Z,-1.9
2019-02-14T06:32:00.103Z,-1.9
2019-02-14T06:32:50.137Z,-1.9
2019-02-14T06:33:39.957Z,-1.8
2019-02-14T06:34:29.686Z,-1.8
2019-02-14T06:35:20.625Z,-1.8
2019-02-14T06:36:10.039Z,-1.8
2019-02-14T06:36:59.869Z,-1.7
2019-02-14T06:37:50.197Z,-1.7
2019-02-14T06:38:40.809Z,-1.6
2019-02-14T06:39:30.844Z,-1.5
2019-02-14T06:40:20.633Z,-1.5
2019-02-14T06:41:10.696Z,-1.4
2019-02-14T06:42:00.474Z,-1.4
2019-02-14T06:42:50.602Z,-1.3
2019-02-14T06:43:40.586Z,-1.3
2019-02-14T06:44:31.201Z,-1.4
2019-02-14T06:45:20.934Z,-1.4
2019-02-14T06:46:10.748Z,-1.3
2019-02-14T06:47:01.331Z,-1.3
2019-02-14T06:47:50.891Z,-1.3
2019-02-14T06:48:41.484Z,-1.1
2019-02-14T06:49:30.988Z,-1.1
2019-02-14T06:50:21.333Z,-1.1
2019-02-14T06:51:11.592Z,-1
2019-02-14T06:52:51.226Z,-1
2019-02-14T06:53:41.592Z,-1
2019-02-14T06:54:31.873Z,-1.1
2019-02-14T06:55:21.938Z,-1.1
2019-02-14T06:56:12.050Z,-1.1
2019-02-14T06:57:02.073Z,-1
2019-02-14T06:58:41.882Z,-1.1
2019-02-14T06:59:32.454Z,-0.9
2019-02-14T07:00:21.735Z,-0.7
2019-02-14T07:01:12.048Z,-0.6
2019-02-14T07:02:02.395Z,-0.4
2019-02-14T07:02:52.172Z,-0.5
2019-02-14T07:03:42.235Z,-0.5
2019-02-14T07:07:07.205Z,-0.4
2019-02-14T07:07:27.842Z,-0.4
2019-02-14T07:08:17.624Z,-0.4
2019-02-14T07:09:07.953Z,-0.5
2019-02-14T07:09:57.725Z,-0.3
2019-02-14T07:10:47.877Z,-0.3
2019-02-14T07:11:38.129Z,-0.3
2019-02-14T07:12:27.350Z,-0.3
2019-02-14T07:13:18.251Z,-0.1
2019-02-14T07:14:08.014Z,-0.1
2019-02-14T07:14:58.077Z,-0.1
2019-02-14T07:15:48.127Z,-0.1
2019-02-14T07:16:38.482Z,-0.3
2019-02-14T07:17:28.527Z,-0.3
2019-02-14T07:18:17.467Z,-0.3
2019-02-14T07:19:08.352Z,-0.4
2019-02-14T07:19:58.424Z,-0.3
2019-02-14T07:20:48.739Z,-0.2
2019-02-14T07:21:38.854Z,-0.1
2019-02-14T07:22:28.861Z,-0.1
2019-02-14T07:23:18.081Z,-0.1
2019-02-14T07:24:08.429Z,-0.1
2019-02-14T07:24:58.484Z,-0.1
2019-02-14T07:25:49.099Z,-0.2
2019-02-14T07:26:38.677Z,-0.1
2019-02-14T07:27:28.673Z,-0.1
2019-02-14T07:28:19.247Z,-0.1
2019-02-14T07:29:09.066Z,-0.1
2019-02-14T07:29:59.398Z,0.1
2019-02-14T07:30:49.416Z,0.1
2019-02-14T07:31:39.251Z,0.1
2019-02-14T07:32:29.284Z,0.3
2019-02-14T07:33:19.639Z,0.3
2019-02-14T07:34:09.394Z,0.2
2019-02-14T07:34:59.695Z,0.1
2019-02-14T07:35:49.493Z,0.1
2019-02-14T07:36:39.841Z,0.3
2019-02-14T07:37:29.986Z,0.2
2019-02-14T07:38:19.675Z,0.4
2019-02-14T07:39:11.610Z,0.5
2019-02-14T07:39:59.803Z,0.6
2019-02-14T07:40:49.856Z,0.6
2019-02-14T07:41:40.198Z,0.6
2019-02-14T07:42:29.678Z,0.5
2019-02-14T07:43:20.023Z,0.7
2019-02-14T07:44:09.778Z,0.8
2019-02-14T07:45:00.382Z,0.8
2019-02-14T07:45:49.955Z,0.9
2019-02-14T07:46:40.245Z,1
2019-02-14T07:47:30.285Z,1.1
2019-02-14T07:48:20.410Z,1.3
2019-02-14T07:49:10.682Z,1.1
2019-02-14T07:50:00.003Z,1
2019-02-14T07:50:50.807Z,1.3
2019-02-14T07:51:40.845Z,1.4
2019-02-14T07:52:30.380Z,1.4
2019-02-14T07:53:20.959Z,1.4
2019-02-14T07:54:11.014Z,1.3
2019-02-14T07:55:01.125Z,1.3
2019-02-14T07:55:50.869Z,1.3
2019-02-14T07:56:41.187Z,1.4
2019-02-14T07:57:31.065Z,1.7
2019-02-14T07:58:21.014Z,1.8
2019-02-14T07:59:10.808Z,1.6
2019-02-14T08:00:01.517Z,1.5
2019-02-14T08:00:51.197Z,1.5
2019-02-14T08:01:41.244Z,1.4
2019-02-14T08:02:31.089Z,1.4
2019-02-14T08:03:20.821Z,1.3
2019-02-14T08:04:10.923Z,1.4
2019-02-14T08:05:00.708Z,1.6
2019-02-14T08:05:51.527Z,1.9
2019-02-14T08:06:41.311Z,1.8
2019-02-14T08:07:38.831Z,1.5
2019-02-14T08:08:21.704Z,1.6
2019-02-14T08:09:11.826Z,1.7
2019-02-14T08:10:01.282Z,1.6
2019-02-14T08:10:51.313Z,1.8
2019-02-14T08:11:41.929Z,1.9
2019-02-14T08:12:32.006Z,1.9
2019-02-14T08:13:22.333Z,2.2
2019-02-14T08:14:11.821Z,2.2
2019-02-14T08:15:01.971Z,2.3
2019-02-14T08:15:51.939Z,2.1
2019-02-14T08:16:42.273Z,1.9
2019-02-14T08:17:32.600Z,2.1
2019-02-14T08:18:22.098Z,2.5
2019-02-14T08:19:12.449Z,2.6
2019-02-14T08:20:02.238Z,2.6
2019-02-14T08:20:52.556Z,2.4
2019-02-14T08:21:42.885Z,2.4
2019-02-14T08:22:32.675Z,2.3
2019-02-14T08:23:22.443Z,2.3
2019-02-14T08:24:12.786Z,2.1
2019-02-14T08:25:02.690Z,2.1
2019-02-14T08:25:52.656Z,2.1
2019-02-14T08:26:42.940Z,2.2
2019-02-14T08:27:31.968Z,2.4
2019-02-14T08:28:23.122Z,2.4
2019-02-14T08:29:13.190Z,2.6
2019-02-14T08:30:03.473Z,2.9
2019-02-14T08:30:52.970Z,2.9
2019-02-14T08:31:43.358Z,2.9
2019-02-14T08:32:33.405Z,2.9
2019-02-14T08:33:23.432Z,2.7
2019-02-14T08:34:13.519Z,2.9
2019-02-14T08:35:03.801Z,2.8
2019-02-14T08:35:53.562Z,3
2019-02-14T08:36:43.937Z,3.2
2019-02-14T08:37:33.960Z,3.3
2019-02-14T08:38:23.493Z,3.4
2019-02-14T08:39:13.809Z,3.1
2019-02-14T08:40:04.187Z,3
2019-02-14T08:40:55.713Z,2.9
2019-02-14T08:41:44.242Z,3.1
2019-02-14T08:42:34.297Z,3
2019-02-14T08:43:24.431Z,3.2
2019-02-14T08:44:14.149Z,3.5
2019-02-14T08:45:03.664Z,3.3
2019-02-14T08:45:54.529Z,3.2
2019-02-14T08:46:44.594Z,3.1
2019-02-14T08:47:34.647Z,3.1
2019-02-14T08:48:24.146Z,3.4
2019-02-14T08:49:14.818Z,3.3
2019-02-14T08:50:04.829Z,3.1
2019-02-14T08:50:54.636Z,3.2
2019-02-14T08:51:44.651Z,3.3
2019-02-14T08:52:34.981Z,3.3
2019-02-14T08:53:24.759Z,3.5
2019-02-14T08:54:14.592Z,3.4
2019-02-14T08:55:04.613Z,3.4
2019-02-14T08:55:54.954Z,3.4
2019-02-14T08:56:44.148Z,3.3
2019-02-14T08:57:35.363Z,3.3
2019-02-14T08:58:25.385Z,3.9
2019-02-14T08:59:15.483Z,3.8
2019-02-14T09:00:05.235Z,3.6
2019-02-14T09:00:54.994Z,3.8
2019-02-14T09:01:45.140Z,3.7
2019-02-14T09:02:34.906Z,3.8
2019-02-14T09:03:25.458Z,3.8
2019-02-14T09:04:15.768Z,3.8
2019-02-14T09:05:05.841Z,3.9
2019-02-14T09:05:55.895Z,4
2019-02-14T09:06:45.652Z,3.7
2019-02-14T09:07:36.028Z,3.7
2019-02-14T09:08:26.055Z,3.8
2019-02-14T09:09:15.580Z,4.1
2019-02-14T09:10:05.885Z,4.1
2019-02-14T09:10:56.205Z,3.8
2019-02-14T09:11:46.298Z,3.4
2019-02-14T09:12:37.967Z,3.3
2019-02-14T09:13:26.397Z,3.3
2019-02-14T09:14:16.197Z,3.3
2019-02-14T09:15:05.992Z,3.5
2019-02-14T09:15:56.307Z,3.7
2019-02-14T09:16:46.345Z,4.1
2019-02-14T09:17:36.417Z,4.3
2019-02-14T09:18:26.752Z,4.3
2019-02-14T09:19:16.607Z,4.3
2019-02-14T09:20:06.582Z,4.3
2019-02-14T09:20:56.416Z,4.2
2019-02-14T09:21:46.430Z,4.3
2019-02-14T09:22:37.025Z,4.3
2019-02-14T09:23:26.817Z,4.4
2019-02-14T09:24:16.866Z,4.3
2019-02-14T09:25:06.970Z,4.4
2019-02-14T09:25:56.687Z,4.4
2019-02-14T09:26:47.092Z,4.8
2019-02-14T09:27:37.069Z,5.1
2019-02-14T09:28:26.586Z,5.3
2019-02-14T09:29:17.479Z,4.9
2019-02-14T09:30:07.532Z,4.8
2019-02-14T09:30:57.038Z,5.1
2019-02-14T09:31:47.364Z,5.3
2019-02-14T09:32:37.726Z,5.1
2019-02-14T09:33:27.784Z,5.1
2019-02-14T09:34:17.536Z,4.8
2019-02-14T09:35:07.316Z,4.7
2019-02-14T09:35:57.642Z,4.9
2019-02-14T09:36:47.691Z,5.2
2019-02-14T09:37:37.768Z,5.3
2019-02-14T09:38:27.833Z,5.1
2019-02-14T09:39:17.874Z,4.9
2019-02-14T09:40:07.979Z,4.8
2019-02-14T09:40:57.985Z,4.9
2019-02-14T09:41:48.090Z,5.2
2019-02-14T09:42:38.154Z,5.2
2019-02-14T09:43:33.013Z,5.2
2019-02-14T09:44:17.988Z,5
2019-02-14T09:45:08.087Z,4.7
2019-02-14T09:45:58.625Z,4.7
2019-02-14T09:46:48.675Z,4.8
2019-02-14T09:47:38.759Z,5
2019-02-14T09:48:28.312Z,4.9
2019-02-14T09:49:18.605Z,5
2019-02-14T09:50:08.379Z,5.3
2019-02-14T09:50:58.825Z,5.6
2019-02-14T09:51:48.723Z,6
2019-02-14T09:52:39.080Z,5.8
2019-02-14T09:53:28.862Z,6.1
2019-02-14T09:54:18.936Z,6.1
2019-02-14T09:55:09.250Z,6.1
2019-02-14T09:55:59.374Z,6.4
2019-02-14T09:56:49.096Z,5.9
2019-02-14T09:57:39.431Z,5.8
2019-02-14T09:58:29.254Z,5.6
2019-02-14T09:59:19.554Z,5.8
2019-02-14T10:00:09.602Z,5.7
2019-02-14T10:00:59.717Z,5.7
2019-02-14T10:01:49.167Z,5.8
2019-02-14T10:02:39.529Z,6
2019-02-14T10:03:29.537Z,6
2019-02-14T10:04:19.884Z,5.8
2019-02-14T10:05:09.690Z,6
2019-02-14T10:07:08.487Z,5.8
2019-02-14T10:07:58.519Z,5.5
2019-02-14T10:08:48.580Z,5.6
2019-02-14T10:09:38.374Z,5.8
2019-02-14T10:10:28.711Z,5.9
2019-02-14T10:11:18.444Z,6
2019-02-14T10:12:08.359Z,5.8
2019-02-14T10:12:58.531Z,6.1
2019-02-14T10:13:48.582Z,5.8
2019-02-14T10:14:38.632Z,6
2019-02-14T10:15:28.993Z,6.2
2019-02-14T10:16:19.056Z,5.9
2019-02-14T10:17:09.076Z,5.8
2019-02-14T10:17:58.594Z,6.2
2019-02-14T10:18:48.923Z,6.4
2019-02-14T10:19:38.980Z,6.6
2019-02-14T10:20:29.035Z,6.4
2019-02-14T10:21:19.367Z,6.4
2019-02-14T10:22:08.913Z,6.5
2019-02-14T10:22:59.311Z,6.9
2019-02-14T10:23:49.563Z,6.9
2019-02-14T10:24:39.333Z,6.4
2019-02-14T10:25:29.100Z,6.4
2019-02-14T10:26:19.425Z,6.3
2019-02-14T10:27:09.480Z,6.3
2019-02-14T10:27:59.005Z,6.2
2019-02-14T10:28:49.070Z,6.1
2019-02-14T10:29:39.947Z,6.1
2019-02-14T10:30:29.710Z,6.4
2019-02-14T10:31:19.757Z,6.3
2019-02-14T10:32:10.079Z,6.6
2019-02-14T10:33:00.198Z,6.4
2019-02-14T10:33:50.302Z,6.7
2019-02-14T10:34:40.284Z,6.6
2019-02-14T10:35:30.037Z,7.1
2019-02-14T10:36:19.839Z,7.1
2019-02-14T10:37:10.205Z,6.9
2019-02-14T10:38:00.544Z,6.7
2019-02-14T10:38:50.834Z,6.6
2019-02-14T10:39:40.339Z,6.3
2019-02-14T10:40:29.857Z,6.2
2019-02-14T10:41:20.501Z,6.4
2019-02-14T10:42:10.784Z,6.4
2019-02-14T10:43:00.566Z,6.5
2019-02-14T10:43:51.766Z,6.2
2019-02-14T10:44:40.941Z,6.4
2019-02-14T10:45:31.014Z,6.7
2019-02-14T10:46:20.502Z,7.1
2019-02-14T10:47:10.289Z,7.1
2019-02-14T10:48:00.886Z,7.3
2019-02-14T10:48:51.233Z,7.4
2019-02-14T10:49:40.729Z,7.4
2019-02-14T10:50:31.127Z,7.3
2019-02-14T10:51:21.390Z,7
2019-02-14T10:52:11.449Z,6.8
2019-02-14T10:53:01.287Z,7
2019-02-14T10:53:51.001Z,7.3
2019-02-14T10:54:41.619Z,7.1
2019-02-14T10:55:31.694Z,7
2019-02-14T10:56:21.456Z,6.8
2019-02-14T10:57:11.836Z,6.9
2019-02-14T10:58:01.568Z,7.2
2019-02-14T10:58:51.896Z,7
2019-02-14T10:59:41.961Z,6.8
2019-02-14T11:00:31.541Z,6.8
2019-02-14T11:01:21.790Z,7
2019-02-14T11:02:12.127Z,6.9
2019-02-14T11:03:02.201Z,6.7
2019-02-14T11:03:51.971Z,6.6
2019-02-14T11:04:41.476Z,6.8
2019-02-14T11:05:32.350Z,6.4
2019-02-14T11:06:22.145Z,6.5
2019-02-14T11:07:14.137Z,6.6
2019-02-14T11:08:02.319Z,6.8
2019-02-14T11:08:52.588Z,7.1
2019-02-14T11:09:42.085Z,6.9
2019-02-14T11:10:32.705Z,6.6
2019-02-14T11:11:22.198Z,6.4
2019-02-14T11:12:12.542Z,6.8
2019-02-14T11:13:02.881Z,7
2019-02-14T11:13:52.915Z,7.3
2019-02-14T11:14:42.705Z,7.8
2019-02-14T11:15:32.776Z,7.8
2019-02-14T11:16:23.100Z,7.7
2019-02-14T11:17:13.150Z,7.4
2019-02-14T11:18:03.221Z,7.6
2019-02-14T11:18:52.987Z,7.4
2019-02-14T11:19:42.779Z,7.5
2019-02-14T11:20:33.378Z,7.5
2019-02-14T11:21:23.424Z,7.2
2019-02-14T11:22:13.207Z,7.1
2019-02-14T11:23:03.265Z,7.3
2019-02-14T11:23:53.597Z,7.3
2019-02-14T11:24:42.807Z,7.8
2019-02-14T11:25:32.981Z,7.9
2019-02-14T11:26:23.504Z,7.4
2019-02-14T11:27:13.812Z,7.4
2019-02-14T11:28:03.884Z,7.5
2019-02-14T11:28:53.446Z,7.3
2019-02-14T11:29:43.727Z,7.4
2019-02-14T11:30:33.769Z,7.1
2019-02-14T11:31:23.841Z,7
2019-02-14T11:32:13.336Z,7.4
2019-02-14T11:33:04.242Z,7.6
2019-02-14T11:33:53.726Z,7.6
2019-02-14T11:34:44.048Z,7.4
2019-02-14T11:35:33.839Z,7.8
2019-02-14T11:36:24.466Z,8.2
2019-02-14T11:37:14.444Z,8.1
2019-02-14T11:38:04.341Z,7.9
2019-02-14T11:38:54.624Z,8
2019-02-14T11:39:44.683Z,8.3
2019-02-14T11:40:34.738Z,7.9
2019-02-14T11:41:23.956Z,8.1
2019-02-14T11:42:14.863Z,8.1
2019-02-14T11:43:04.963Z,7.7
2019-02-14T11:43:54.696Z,7.9
2019-02-14T11:44:45.042Z,7.9
2019-02-14T11:45:34.883Z,7.8
2019-02-14T11:46:24.852Z,7.8
2019-02-14T11:47:14.935Z,7.9
2019-02-14T11:48:05.281Z,8
2019-02-14T11:48:55.332Z,8.1
2019-02-14T11:49:45.078Z,7.8
2019-02-14T11:50:35.420Z,7.4
2019-02-14T11:51:25.231Z,7.7
2019-02-14T11:52:14.978Z,7.7
2019-02-14T11:53:15.248Z,7.8
2019-02-14T11:53:55.120Z,7.3
2019-02-14T11:54:44.873Z,7.4
2019-02-14T11:55:35.210Z,7
2019-02-14T11:56:25.837Z,6.8
2019-02-14T11:57:15.871Z,6.6
2019-02-14T11:58:05.932Z,6.5
2019-02-14T11:58:55.705Z,6.5
2019-02-14T11:59:46.042Z,6.6
2019-02-14T12:00:35.843Z,6.4
2019-02-14T12:01:25.414Z,6.6
2019-02-14T12:02:15.932Z,6.3
2019-02-14T12:03:06.002Z,6.2
2019-02-14T12:03:55.782Z,6.4
2019-02-14T12:04:46.385Z,6.7
2019-02-14T12:07:08.311Z,6.4
2019-02-14T12:07:58.091Z,6.2
2019-02-14T12:09:02.852Z,6.1
2019-02-14T12:09:38.478Z,6.3
2019-02-14T12:10:28.529Z,6.4
2019-02-14T12:11:18.594Z,6.6
2019-02-14T12:12:08.642Z,6.8
2019-02-14T12:12:58.734Z,6.1
2019-02-14T12:13:57.319Z,6.8
2019-02-14T12:14:47.264Z,6.8
2019-02-14T12:15:36.911Z,6.6
2019-02-14T12:16:27.231Z,6.3